Time;durP1;ratioP1;P1;durP2;ratioP2;P2;SDS_P1;SDS_P2;PMS_P1;PMS_P2;Temp;Humidity;BMP_temperature;BMP_pressure;BME280_temperature;BME280_humidity;BME280_pressure;Samples;Min_cycle;Max_cycle;Signal;HPM_P1;HPM_P2
2023/01/21 00:00:35;;;;;;;35.30;20.67;;;-1.40;99.90;;;;;;7333881;32;20249;-60
2023/01/21 00:04:37;;;;;;;38.00;20.20;;;-1.50;99.90;;;;;;7330997;32;20104;-61
2023/01/21 00:08:39;;;;;;;38.38;20.25;;;-1.40;99.90;;;;;;7332480;32;20176;-60
2023/01/21 00:12:41;;;;;;;36.28;19.80;;;-1.50;99.90;;;;;;7333652;32;20203;-60
2023/01/21 00:16:42;;;;;;;36.35;20.92;;;-1.50;99.90;;;;;;7334019;32;20122;-60
2023/01/21 00:20:45;;;;;;;34.90;20.45;;;-1.60;99.90;;;;;;7333082;32;20350;-61
2023/01/21 00:24:46;;;;;;;37.88;21.30;;;-1.60;99.90;;;;;;7333079;32;20111;-60
2023/01/21 00:28:48;;;;;;;39.63;21.27;;;-1.70;99.90;;;;;;7330644;32;20265;-60
2023/01/21 00:32:51;;;;;;;37.15;20.62;;;-1.70;99.90;;;;;;7336261;32;20911;-60
2023/01/21 00:36:52;;;;;;;34.42;19.90;;;-1.80;99.90;;;;;;7336246;32;20828;-61
2023/01/21 00:41:16;;;;;;;37.00;21.25;;;-1.80;99.90;;;;;;7331449;32;20490;-60
2023/01/21 00:45:17;;;;;;;37.83;21.25;;;-1.80;99.90;;;;;;7337521;32;20278;-60
2023/01/21 00:49:19;;;;;;;36.00;20.60;;;-1.80;99.90;;;;;;7339719;32;20127;-60
2023/01/21 00:53:22;;;;;;;39.42;20.75;;;-1.70;99.90;;;;;;7338369;32;20500;-60
2023/01/21 00:57:24;;;;;;;41.25;22.27;;;-1.80;99.90;;;;;;7338990;32;20230;-60
2023/01/21 01:01:28;;;;;;;40.33;20.90;;;-1.80;99.90;;;;;;7335709;32;20340;-60
2023/01/21 01:05:30;;;;;;;35.35;20.92;;;-1.80;99.90;;;;;;7337985;32;20577;-60
2023/01/21 01:09:32;;;;;;;39.88;20.90;;;-1.80;99.90;;;;;;7338146;32;20240;-60
2023/01/21 01:13:35;;;;;;;36.40;20.83;;;-1.80;99.90;;;;;;7340120;32;20621;-60
2023/01/21 01:17:37;;;;;;;36.88;21.00;;;-1.80;99.90;;;;;;7338117;32;20116;-60
2023/01/21 01:21:39;;;;;;;45.08;22.35;;;-1.80;99.90;;;;;;7335627;32;20262;-60
2023/01/21 01:25:40;;;;;;;40.22;21.40;;;-1.90;99.90;;;;;;7339963;32;20119;-60
2023/01/21 01:29:42;;;;;;;39.92;21.42;;;-1.90;99.90;;;;;;7335207;32;20153;-60
2023/01/21 01:33:44;;;;;;;42.05;22.20;;;-1.90;99.90;;;;;;7337315;32;20217;-61
2023/01/21 01:37:46;;;;;;;39.17;21.35;;;-1.90;99.90;;;;;;7337121;32;20107;-60
2023/01/21 01:41:47;;;;;;;38.05;20.80;;;-2.00;99.90;;;;;;7336387;32;20137;-60
2023/01/21 01:45:50;;;;;;;41.15;22.80;;;-2.00;99.90;;;;;;7337670;32;20102;-60
2023/01/21 01:49:52;;;;;;;37.42;21.05;;;-2.00;99.90;;;;;;7335223;32;20258;-60
2023/01/21 01:53:54;;;;;;;44.97;23.62;;;-2.00;99.90;;;;;;7334869;32;22178;-61
2023/01/21 01:57:56;;;;;;;42.65;22.73;;;-2.00;99.90;;;;;;7336488;32;21391;-61
2023/01/21 02:02:06;;;;;;;47.62;23.75;;;-2.00;99.90;;;;;;7336546;32;20219;-60
2023/01/21 02:06:08;;;;;;;46.42;24.77;;;-1.90;99.90;;;;;;7329748;32;20150;-60
2023/01/21 02:10:12;;;;;;;49.55;24.98;;;-1.90;99.90;;;;;;7337890;32;20143;-60
2023/01/21 02:14:14;;;;;;;46.17;24.63;;;-1.90;99.90;;;;;;7339359;32;20230;-61
2023/01/21 02:18:39;;;;;;;48.95;26.77;;;-1.90;99.90;;;;;;7330540;32;20254;-61
2023/01/21 02:22:54;;;;;;;52.03;24.77;;;-2.00;99.90;;;;;;7336352;32;20101;-60
2023/01/21 02:27:07;;;;;;;49.50;25.52;;;-1.90;99.90;;;;;;7336312;32;20249;-60
2023/01/21 02:31:50;;;;;;;51.17;25.48;;;-1.90;99.90;;;;;;7336856;32;20251;-60
2023/01/21 02:36:09;;;;;;;44.17;23.48;;;-2.00;99.90;;;;;;7328340;32;20146;-59
2023/01/21 02:40:11;;;;;;;42.53;23.23;;;-1.90;99.90;;;;;;7333645;32;20662;-59
2023/01/21 02:44:34;;;;;;;44.28;23.87;;;-2.00;99.90;;;;;;7335969;32;20564;-59
2023/01/21 02:48:46;;;;;;;46.03;23.80;;;-2.00;99.90;;;;;;7335294;32;20130;-59
2023/01/21 02:52:58;;;;;;;41.60;22.90;;;-2.10;99.90;;;;;;7335214;32;20984;-60
2023/01/21 02:57:00;;;;;;;41.30;22.75;;;-2.10;99.90;;;;;;7333790;32;20707;-59
2023/01/21 03:01:23;;;;;;;41.55;22.58;;;-2.10;99.90;;;;;;7339495;32;20240;-59
2023/01/21 03:05:46;;;;;;;40.17;22.25;;;-2.20;99.90;;;;;;7342560;32;20535;-61
2023/01/21 03:09:48;;;;;;;44.88;23.48;;;-2.10;99.90;;;;;;7337445;32;20158;-60
2023/01/21 03:18:44;;;;;;;45.12;22.62;;;-2.10;99.90;;;;;;7333344;32;20103;-59
2023/01/21 03:22:49;;;;;;;36.80;20.73;;;-2.30;99.90;;;;;;7342977;32;20134;-60
2023/01/21 03:31:58;;;;;;;39.63;21.67;;;-2.40;99.90;;;;;;7332696;32;20212;-62
2023/01/21 03:36:06;;;;;;;42.63;22.00;;;-2.40;99.90;;;;;;7343348;32;20467;-60
2023/01/21 03:40:28;;;;;;;41.42;23.15;;;-2.40;99.90;;;;;;7343565;32;20099;-60
2023/01/21 03:44:30;;;;;;;48.38;23.90;;;-2.50;99.90;;;;;;7344296;32;20449;-60
2023/01/21 03:48:46;;;;;;;43.33;22.83;;;-2.50;99.90;;;;;;7337554;32;20128;-59
2023/01/21 03:52:49;;;;;;;42.90;22.90;;;-2.50;99.90;;;;;;7347236;32;20248;-60
2023/01/21 03:56:50;;;;;;;49.50;24.65;;;-2.50;99.90;;;;;;7347387;32;20285;-61
2023/01/21 04:00:52;;;;;;;42.78;23.00;;;-2.50;99.90;;;;;;7342740;32;20301;-59
2023/01/21 04:04:54;;;;;;;48.42;24.33;;;-2.60;99.90;;;;;;7338120;32;20324;-62
2023/01/21 04:08:55;;;;;;;46.08;23.10;;;-2.60;99.90;;;;;;7338487;32;20171;-60
2023/01/21 04:12:57;;;;;;;43.05;23.98;;;-2.60;99.90;;;;;;7342103;32;20100;-60
2023/01/21 04:16:59;;;;;;;44.97;24.52;;;-2.60;99.90;;;;;;7343251;32;20108;-60
2023/01/21 04:21:01;;;;;;;49.88;24.77;;;-2.60;99.90;;;;;;7348527;32;20160;-60
2023/01/21 04:25:04;;;;;;;46.60;24.23;;;-2.60;99.90;;;;;;7344933;32;20262;-60
2023/01/21 04:29:06;;;;;;;45.38;25.02;;;-2.60;99.90;;;;;;7347519;32;20172;-59
2023/01/21 04:33:08;;;;;;;48.75;25.15;;;-2.60;99.90;;;;;;7342662;32;20099;-60
2023/01/21 04:37:09;;;;;;;50.78;25.95;;;-2.60;99.90;;;;;;7348810;32;20575;-59
2023/01/21 04:41:11;;;;;;;47.97;25.10;;;-2.60;99.90;;;;;;7340450;32;20129;-60
2023/01/21 04:45:13;;;;;;;52.50;26.60;;;-2.50;99.90;;;;;;7340564;32;20167;-60
2023/01/21 04:49:15;;;;;;;49.47;24.90;;;-2.50;99.90;;;;;;7347650;32;20241;-60
2023/01/21 04:53:16;;;;;;;53.42;27.62;;;-2.50;99.90;;;;;;7347256;32;20133;-60
2023/01/21 04:57:18;;;;;;;53.83;25.67;;;-2.50;99.90;;;;;;7344859;32;20103;-60
2023/01/21 05:01:19;;;;;;;49.55;26.20;;;-2.50;99.90;;;;;;7345384;32;20959;-60
2023/01/21 05:05:21;;;;;;;57.13;27.40;;;-2.50;99.90;;;;;;7344949;32;20524;-60
2023/01/21 05:09:23;;;;;;;48.67;26.55;;;-2.50;99.90;;;;;;7334961;32;20111;-60
2023/01/21 05:13:25;;;;;;;55.05;27.90;;;-2.50;99.90;;;;;;7341534;32;20182;-61
2023/01/21 05:17:26;;;;;;;51.70;26.77;;;-2.50;99.90;;;;;;7348859;32;20174;-60
2023/01/21 05:21:28;;;;;;;55.08;27.08;;;-2.50;99.90;;;;;;7338392;32;20130;-60
2023/01/21 05:25:30;;;;;;;54.65;27.33;;;-2.50;99.90;;;;;;7342319;32;20111;-60
2023/01/21 05:29:31;;;;;;;59.42;27.98;;;-2.50;99.90;;;;;;7348157;32;20187;-58
2023/01/21 05:33:34;;;;;;;54.70;26.75;;;-2.50;99.90;;;;;;7343933;32;20231;-60
2023/01/21 05:37:36;;;;;;;52.47;26.25;;;-2.50;99.90;;;;;;7343336;32;20159;-62
2023/01/21 05:41:37;;;;;;;49.17;24.92;;;-2.50;99.90;;;;;;7342316;32;20111;-61
2023/01/21 05:45:39;;;;;;;49.00;25.55;;;-2.50;99.90;;;;;;7344199;32;20100;-61
2023/01/21 05:49:41;;;;;;;49.50;23.48;;;-2.60;99.90;;;;;;7339608;32;20107;-61
2023/01/21 05:53:44;;;;;;;46.50;23.02;;;-2.60;99.90;;;;;;7339663;32;20495;-61
2023/01/21 05:57:45;;;;;;;43.75;22.80;;;-2.70;99.90;;;;;;7343258;32;20524;-61
2023/01/21 06:01:47;;;;;;;46.78;25.02;;;-2.70;99.90;;;;;;7342403;32;20219;-58
2023/01/21 06:05:49;;;;;;;44.78;24.37;;;-2.80;99.90;;;;;;7329991;32;20191;-59
2023/01/21 06:09:51;;;;;;;48.33;24.65;;;-2.70;99.90;;;;;;7339924;32;20565;-60
2023/01/21 06:13:53;;;;;;;50.45;24.45;;;-2.80;99.90;;;;;;7347388;32;20108;-59
2023/01/21 06:17:54;;;;;;;48.58;26.00;;;-2.80;99.90;;;;;;7343711;32;20250;-60
2023/01/21 06:21:56;;;;;;;53.75;24.35;;;-2.80;99.90;;;;;;7336751;32;20513;-59
2023/01/21 06:25:59;;;;;;;52.85;25.10;;;-2.70;99.90;;;;;;7340228;32;20104;-59
2023/01/21 06:30:01;;;;;;;52.28;26.17;;;-2.80;99.90;;;;;;7339219;32;20527;-59
2023/01/21 06:34:03;;;;;;;47.38;24.87;;;-2.80;99.90;;;;;;7340659;32;20178;-59
2023/01/21 06:38:05;;;;;;;50.40;25.98;;;-2.70;99.90;;;;;;7332227;32;20225;-59
2023/01/21 06:42:06;;;;;;;55.97;28.85;;;-2.70;99.90;;;;;;7330741;32;20112;-59
2023/01/21 06:46:09;;;;;;;54.75;27.35;;;-2.70;99.90;;;;;;7342775;32;20127;-60
2023/01/21 06:50:15;;;;;;;60.33;29.52;;;-2.70;99.90;;;;;;7340433;32;20331;-60
2023/01/21 06:54:17;;;;;;;59.17;29.47;;;-2.70;99.90;;;;;;7340660;32;20243;-59
2023/01/21 06:58:19;;;;;;;58.47;28.00;;;-2.70;99.90;;;;;;7342126;32;20107;-60
2023/01/21 07:02:20;;;;;;;60.70;28.45;;;-2.70;99.90;;;;;;7336873;32;20285;-60
2023/01/21 07:06:22;;;;;;;56.17;27.75;;;-2.70;99.90;;;;;;7347205;32;20592;-60
2023/01/21 07:10:24;;;;;;;57.13;28.45;;;-2.60;99.90;;;;;;7345311;32;20127;-61
2023/01/21 07:14:26;;;;;;;52.15;27.60;;;-2.70;99.90;;;;;;7343408;32;20112;-60
2023/01/21 07:18:27;;;;;;;53.35;26.45;;;-2.80;99.90;;;;;;7345232;32;20100;-61
2023/01/21 07:22:29;;;;;;;52.13;25.90;;;-2.70;99.90;;;;;;7338656;32;20095;-60
2023/01/21 07:26:34;;;;;;;50.50;25.77;;;-2.70;99.90;;;;;;7341503;32;20118;-60
2023/01/21 07:30:36;;;;;;;50.30;24.87;;;-2.70;99.90;;;;;;7333456;32;20521;-61
2023/01/21 07:34:38;;;;;;;56.22;27.05;;;-2.70;99.90;;;;;;7337913;32;20202;-60
2023/01/21 07:38:40;;;;;;;49.65;25.37;;;-2.80;99.90;;;;;;7336078;32;20100;-60
2023/01/21 07:42:41;;;;;;;55.38;26.55;;;-2.80;99.90;;;;;;7340610;32;20534;-61
2023/01/21 07:46:43;;;;;;;54.97;27.30;;;-2.70;99.90;;;;;;7333304;32;20267;-63
2023/01/21 07:50:45;;;;;;;54.75;27.40;;;-2.70;99.90;;;;;;7336058;32;20693;-60
2023/01/21 07:54:47;;;;;;;48.17;24.12;;;-2.70;99.90;;;;;;7346766;32;20130;-60
2023/01/21 07:58:49;;;;;;;55.12;27.08;;;-2.70;99.90;;;;;;7345539;32;20792;-60
2023/01/21 08:02:52;;;;;;;51.95;26.67;;;-2.60;99.90;;;;;;7347629;32;20257;-60
2023/01/21 08:06:55;;;;;;;58.30;28.12;;;-2.50;99.90;;;;;;7338422;32;20407;-60
2023/01/21 08:10:57;;;;;;;54.20;27.40;;;-2.40;99.90;;;;;;7340974;32;20580;-59
2023/01/21 08:14:59;;;;;;;51.22;27.13;;;-2.30;99.90;;;;;;7335673;32;20157;-60
2023/01/21 08:19:01;;;;;;;50.35;27.15;;;-2.20;99.90;;;;;;7339966;32;20219;-63
2023/01/21 08:23:02;;;;;;;53.83;27.55;;;-2.20;99.90;;;;;;7331654;32;20244;-61
2023/01/21 08:27:04;;;;;;;48.85;26.27;;;-2.20;99.90;;;;;;7337150;32;20108;-61
2023/01/21 08:31:10;;;;;;;56.15;27.60;;;-2.10;99.90;;;;;;7333895;32;20254;-62
2023/01/21 08:35:12;;;;;;;50.83;29.25;;;-1.90;99.90;;;;;;7346680;32;20856;-61
2023/01/21 08:39:17;;;;;;;52.53;28.83;;;-1.90;99.90;;;;;;7342204;32;20103;-61
2023/01/21 08:43:18;;;;;;;53.25;29.95;;;-1.70;99.90;;;;;;7343659;32;20103;-59
2023/01/21 08:47:20;;;;;;;51.70;28.08;;;-1.60;99.90;;;;;;7344222;32;20122;-59
2023/01/21 08:51:22;;;;;;;55.03;30.15;;;-1.70;99.90;;;;;;7340696;32;20196;-60
2023/01/21 08:55:25;;;;;;;53.92;29.87;;;-1.50;99.90;;;;;;7337152;32;20652;-60
2023/01/21 08:59:28;;;;;;;55.55;31.60;;;-1.50;99.90;;;;;;7338610;32;20447;-60
2023/01/21 09:03:30;;;;;;;56.40;28.85;;;-1.30;99.90;;;;;;7330291;32;20130;-61
2023/01/21 09:07:32;;;;;;;55.05;30.30;;;-1.30;99.90;;;;;;7342125;32;20103;-59
2023/01/21 09:11:33;;;;;;;57.67;32.72;;;-1.10;99.90;;;;;;7340131;32;20148;-61
2023/01/21 09:15:40;;;;;;;57.42;28.92;;;-1.00;99.90;;;;;;7341916;32;20238;-60
2023/01/21 09:19:42;;;;;;;;;;;-1.00;99.90;;;;;;7345037;32;20127;-60
2023/01/21 09:23:44;;;;;;;46.13;26.62;;;-0.90;99.90;;;;;;7339717;32;20435;-60
2023/01/21 09:27:45;;;;;;;47.55;25.40;;;-0.80;99.90;;;;;;7340018;32;20205;-60
2023/01/21 09:31:47;;;;;;;46.15;24.30;;;-0.60;99.90;;;;;;7343649;32;20125;-60
2023/01/21 09:36:11;;;;;;;46.65;26.45;;;-0.50;99.90;;;;;;7342933;32;20494;-60
2023/01/21 09:40:15;;;;;;;46.47;23.75;;;-0.50;99.90;;;;;;7345300;32;20103;-60
2023/01/21 09:44:34;;;;;;;43.63;24.02;;;-0.40;99.90;;;;;;7345519;32;20198;-60
2023/01/21 09:48:44;;;;;;;49.47;28.77;;;-0.30;99.90;;;;;;7340376;32;20103;-60
2023/01/21 09:52:49;;;;;;;50.85;26.50;;;-0.30;99.90;;;;;;7333876;32;20221;-59
2023/01/21 09:57:19;;;;;;;45.60;24.27;;;-0.20;99.90;;;;;;7337010;32;20204;-59
2023/01/21 10:01:32;;;;;;;55.50;28.35;;;-0.10;99.90;;;;;;7337997;32;20103;-61
2023/01/21 10:05:52;;;;;;;41.95;21.75;;;-0.10;99.90;;;;;;7335765;32;20218;-60
2023/01/21 10:10:12;;;;;;;43.75;22.48;;;0.00;99.90;;;;;;7338619;32;20636;-60
2023/01/21 10:14:41;;;;;;;40.67;22.37;;;0.00;99.90;;;;;;7334943;32;20194;-61
2023/01/21 10:18:47;;;;;;;49.40;26.12;;;0.10;99.90;;;;;;7337524;32;20759;-59
2023/01/21 10:22:55;;;;;;;46.17;24.58;;;0.20;99.90;;;;;;7337734;32;20103;-60
2023/01/21 10:26:57;;;;;;;50.55;29.60;;;0.30;99.90;;;;;;7338507;32;20106;-60
2023/01/21 10:31:27;;;;;;;45.05;25.02;;;0.30;99.90;;;;;;7339168;32;20494;-59
2023/01/21 10:35:40;;;;;;;43.78;23.00;;;0.30;99.90;;;;;;7346668;32;20264;-60
2023/01/21 10:40:03;;;;;;;44.03;22.80;;;0.50;99.90;;;;;;7337545;32;20486;-60
2023/01/21 10:44:29;;;;;;;64.45;33.30;;;0.50;99.90;;;;;;7337439;32;20171;-59
2023/01/21 10:49:05;;;;;;;46.10;24.12;;;0.60;99.90;;;;;;7333996;32;20611;-58
2023/01/21 10:53:12;;;;;;;43.10;24.40;;;0.50;99.90;;;;;;7340898;32;20581;-60
2023/01/21 10:57:26;;;;;;;43.75;23.58;;;0.50;99.90;;;;;;7343742;32;20200;-60
2023/01/21 11:01:39;;;;;;;45.45;22.92;;;0.50;99.90;;;;;;7342205;32;20134;-60
2023/01/21 11:05:42;;;;;;;46.28;24.63;;;0.50;99.90;;;;;;7342291;32;20164;-59
2023/01/21 11:09:46;;;;;;;57.85;30.83;;;0.60;99.90;;;;;;7339075;32;20099;-60
2023/01/21 11:13:48;;;;;;;49.40;25.12;;;0.50;99.90;;;;;;7345431;32;20128;-60
2023/01/21 11:17:52;;;;;;;57.05;28.02;;;0.60;99.90;;;;;;7340640;32;20176;-60
2023/01/21 11:22:22;;;;;;;44.90;24.40;;;0.70;99.90;;;;;;7345968;32;20176;-60
2023/01/21 11:26:28;;;;;;;52.80;26.35;;;0.90;99.90;;;;;;7338484;32;20129;-60
2023/01/21 11:30:39;;;;;;;49.47;25.35;;;0.80;99.90;;;;;;7339218;32;20185;-59
2023/01/21 11:35:14;;;;;;;45.78;22.37;;;0.90;99.90;;;;;;7344146;32;20209;-60
2023/01/21 11:39:16;;;;;;;38.03;21.65;;;1.30;99.90;;;;;;7339861;32;20262;-59
2023/01/21 11:43:33;;;;;;;41.37;21.15;;;1.50;99.90;;;;;;7337518;32;20153;-60
2023/01/21 11:47:46;;;;;;;38.03;21.27;;;1.80;99.90;;;;;;7335844;32;20234;-61
2023/01/21 11:51:48;;;;;;;36.00;21.20;;;1.90;99.90;;;;;;7337568;32;20417;-60
2023/01/21 11:55:52;;;;;;;39.72;21.48;;;1.90;99.90;;;;;;7332215;32;20195;-62
2023/01/21 12:00:02;;;;;;;35.70;19.48;;;2.10;99.90;;;;;;7342144;32;20136;-61
2023/01/21 12:04:04;;;;;;;31.00;18.08;;;2.20;99.90;;;;;;7334081;32;20170;-62
2023/01/21 12:08:17;;;;;;;33.58;18.40;;;2.20;99.90;;;;;;7332674;32;20214;-60
2023/01/21 12:12:22;;;;;;;33.83;18.75;;;2.30;99.90;;;;;;7332299;32;20190;-60
2023/01/21 12:16:41;;;;;;;33.60;19.77;;;2.20;99.90;;;;;;7330078;32;20449;-61
2023/01/21 12:20:55;;;;;;;34.50;18.73;;;2.00;99.90;;;;;;7337754;32;20103;-60
2023/01/21 12:25:11;;;;;;;33.33;19.35;;;2.00;99.90;;;;;;7340267;32;20245;-60
2023/01/21 12:29:35;;;;;;;35.33;17.87;;;2.10;99.90;;;;;;7328209;32;20120;-61
2023/01/21 12:33:57;;;;;;;29.35;17.25;;;2.20;99.90;;;;;;7337990;32;20162;-61
2023/01/21 12:38:19;;;;;;;32.05;16.62;;;2.20;99.90;;;;;;7341331;32;20445;-60
2023/01/21 12:42:30;;;;;;;36.53;18.48;;;2.10;99.90;;;;;;7337985;32;20096;-61
2023/01/21 12:46:39;;;;;;;30.75;16.60;;;2.10;99.90;;;;;;7337933;32;20186;-61
2023/01/21 12:50:55;;;;;;;36.33;18.92;;;1.90;99.90;;;;;;7339387;32;20118;-61
2023/01/21 12:55:07;;;;;;;36.75;18.60;;;2.00;99.90;;;;;;7341163;32;20202;-61
2023/01/21 12:59:46;;;;;;;34.40;17.70;;;1.90;99.90;;;;;;7343459;32;20195;-61
2023/01/21 13:04:05;;;;;;;33.38;18.20;;;1.90;99.90;;;;;;7335290;32;20213;-61
2023/01/21 13:08:36;;;;;;;33.22;17.92;;;2.00;99.90;;;;;;7337920;32;20202;-63
2023/01/21 13:12:42;;;;;;;37.63;19.12;;;2.10;99.90;;;;;;7342203;32;20133;-61
2023/01/21 13:16:48;;;;;;;33.35;17.83;;;2.00;99.90;;;;;;7341108;32;20430;-61
2023/01/21 13:20:54;;;;;;;33.80;17.40;;;2.10;99.90;;;;;;7339595;32;20122;-61
2023/01/21 13:25:27;;;;;;;35.38;18.48;;;2.20;99.90;;;;;;7348996;32;20126;-61
2023/01/21 13:30:14;;;;;;;33.33;15.90;;;2.10;99.90;;;;;;7346022;32;20529;-60
2023/01/21 13:34:27;;;;;;;31.90;16.42;;;2.10;99.90;;;;;;7341853;32;20111;-61
2023/01/21 13:38:46;;;;;;;30.75;17.02;;;2.20;99.90;;;;;;7337129;32;20653;-61
2023/01/21 13:43:03;;;;;;;33.10;17.70;;;2.00;99.90;;;;;;7338290;32;20099;-60
2023/01/21 13:47:19;;;;;;;28.47;16.00;;;2.00;99.90;;;;;;7338557;32;20129;-61
2023/01/21 13:51:32;;;;;;;32.63;16.30;;;1.90;99.90;;;;;;7340603;32;20126;-60
2023/01/21 13:56:10;;;;;;;30.10;17.55;;;1.90;99.90;;;;;;7342865;32;20152;-60
2023/01/21 14:00:17;;;;;;;;;;;2.00;99.90;;;;;;7340242;32;20112;-61
2023/01/21 14:04:37;;;;;;;;;;;2.00;99.90;;;;;;7334156;32;20746;-61
2023/01/21 14:08:46;;;;;;;27.52;15.73;;;2.00;99.90;;;;;;7339592;32;20006;-60
2023/01/21 14:13:03;;;;;;;32.25;17.25;;;1.80;99.90;;;;;;7345864;32;20113;-61
2023/01/21 14:17:36;;;;;;;32.47;16.12;;;1.70;99.90;;;;;;7344254;32;20168;-60
2023/01/21 14:21:52;;;;;;;33.58;17.27;;;1.70;99.90;;;;;;7332289;32;20222;-62
2023/01/21 14:26:29;;;;;;;39.70;20.98;;;1.70;99.90;;;;;;7336150;32;20103;-61
2023/01/21 14:31:06;;;;;;;32.47;17.10;;;1.70;99.90;;;;;;7276664;32;20475;-60
2023/01/21 14:35:26;;;;;;;25.47;14.90;;;1.70;99.90;;;;;;7322208;32;20138;-61
2023/01/21 14:39:40;;;;;;;29.65;16.95;;;1.70;99.90;;;;;;7334517;32;20209;-61
2023/01/21 14:43:43;;;;;;;33.75;18.70;;;1.80;99.90;;;;;;7339569;32;20118;-60
2023/01/21 14:47:50;;;;;;;25.98;15.27;;;1.90;99.90;;;;;;7345502;32;20291;-61
2023/01/21 14:51:52;;;;;;;24.92;15.00;;;1.70;99.90;;;;;;7339803;32;20226;-62
2023/01/21 14:56:22;;;;;;;28.05;16.42;;;1.70;99.90;;;;;;7339640;32;20174;-61
2023/01/21 15:00:28;;;;;;;31.70;16.42;;;1.60;99.90;;;;;;7331122;32;20231;-63
2023/01/21 15:04:37;;;;;;;29.08;16.20;;;1.50;99.90;;;;;;7340386;32;20437;-60
2023/01/21 15:08:44;;;;;;;29.40;15.98;;;1.40;99.90;;;;;;7335738;32;20321;-62
2023/01/21 15:12:56;;;;;;;30.10;17.50;;;1.40;99.90;;;;;;7335234;32;20788;-61
2023/01/21 15:16:58;;;;;;;29.80;16.87;;;1.40;99.90;;;;;;7341962;32;20125;-61
2023/01/21 15:21:00;;;;;;;30.10;16.62;;;1.40;99.90;;;;;;7342489;32;20130;-60
2023/01/21 15:25:16;;;;;;;30.45;17.30;;;1.30;99.90;;;;;;7348270;32;20107;-61
2023/01/21 15:29:34;;;;;;;29.98;16.23;;;1.40;99.90;;;;;;7339067;32;20112;-61
2023/01/21 15:34:15;;;;;;;31.55;16.33;;;1.40;99.90;;;;;;7336766;32;20874;-60
2023/01/21 15:38:18;;;;;;;32.00;16.23;;;1.30;99.90;;;;;;7331920;32;20256;-60
2023/01/21 15:42:45;;;;;;;42.88;21.23;;;1.30;99.90;;;;;;7340254;32;20106;-61
2023/01/21 15:46:58;;;;;;;51.90;23.50;;;1.30;99.90;;;;;;7336349;32;20201;-61
2023/01/21 15:51:19;;;;;;;49.17;21.17;;;1.30;99.90;;;;;;7329135;32;20127;-60
2023/01/21 15:55:27;;;;;;;38.22;19.83;;;1.10;99.90;;;;;;7340474;32;20132;-60
2023/01/21 15:59:44;;;;;;;26.58;15.48;;;1.20;99.90;;;;;;7332642;32;20131;-60
2023/01/21 16:04:11;;;;;;;27.83;14.90;;;1.10;99.90;;;;;;7338826;32;20272;-61
2023/01/21 16:08:57;;;;;;;25.25;13.73;;;1.20;99.90;;;;;;7333583;32;20126;-60
2023/01/21 16:13:14;;;;;;;22.62;12.18;;;1.10;99.90;;;;;;7269941;32;20656;-59
2023/01/21 16:17:41;;;;;;;28.83;14.70;;;1.00;99.90;;;;;;7340142;32;20128;-59
2023/01/21 16:21:45;;;;;;;28.80;16.27;;;1.00;99.90;;;;;;7346621;32;20187;-59
2023/01/21 16:25:49;;;;;;;20.05;12.48;;;1.00;99.90;;;;;;7350481;32;20197;-59
2023/01/21 16:29:59;;;;;;;20.45;12.27;;;1.00;99.90;;;;;;7344169;32;20187;-59
2023/01/21 16:34:00;;;;;;;20.12;10.77;;;0.90;99.90;;;;;;7344186;32;20234;-58
2023/01/21 16:38:02;;;;;;;19.73;11.60;;;0.90;99.90;;;;;;7341444;32;20258;-60
2023/01/21 16:42:05;;;;;;;19.25;10.50;;;0.90;99.90;;;;;;7346678;32;20481;-59
2023/01/21 16:46:12;;;;;;;18.80;10.27;;;0.90;99.90;;;;;;7339258;32;20198;-60
2023/01/21 16:50:19;;;;;;;19.12;10.00;;;0.90;99.90;;;;;;7339015;32;20237;-61
2023/01/21 16:54:30;;;;;;;17.42;10.05;;;0.90;99.90;;;;;;7340760;32;20111;-60
2023/01/21 16:58:33;;;;;;;18.77;11.30;;;0.80;99.90;;;;;;7344660;32;20430;-60
2023/01/21 17:02:36;;;;;;;16.20;8.88;;;0.80;99.90;;;;;;7340635;32;20533;-61
2023/01/21 17:06:39;;;;;;;18.37;9.02;;;0.70;99.90;;;;;;7345080;32;20731;-59
2023/01/21 17:10:58;;;;;;;21.45;12.30;;;0.80;99.90;;;;;;7342482;32;20182;-60
2023/01/21 17:15:40;;;;;;;15.00;9.07;;;0.80;99.90;;;;;;7344815;32;20107;-60
2023/01/21 17:20:00;;;;;;;15.73;8.95;;;0.70;99.90;;;;;;7297998;32;20514;-60
2023/01/21 17:24:26;;;;;;;16.33;9.68;;;0.60;99.90;;;;;;7344629;32;20107;-59
2023/01/21 17:28:58;;;;;;;15.05;8.68;;;0.60;99.90;;;;;;7323877;32;20133;-57
2023/01/21 17:33:29;;;;;;;14.93;8.32;;;0.60;99.90;;;;;;7347073;32;20126;-58
2023/01/21 17:37:55;;;;;;;14.60;8.38;;;0.60;99.90;;;;;;7344827;32;20114;-58
2023/01/21 17:42:24;;;;;;;17.67;9.37;;;0.60;99.90;;;;;;7348384;32;20532;-59
2023/01/21 17:46:48;;;;;;;38.05;18.48;;;0.50;99.90;;;;;;7351330;32;20126;-59
2023/01/21 17:51:17;;;;;;;24.33;13.45;;;0.50;99.90;;;;;;7348468;32;20225;-59
2023/01/21 17:55:39;;;;;;;18.52;10.65;;;0.60;99.90;;;;;;7345198;32;20131;-59
2023/01/21 18:00:22;;;;;;;19.00;11.20;;;0.60;99.90;;;;;;7342200;32;20261;-59
2023/01/21 18:04:44;;;;;;;17.33;9.57;;;0.60;99.90;;;;;;7349193;32;20131;-58
2023/01/21 18:09:11;;;;;;;17.52;9.98;;;0.60;99.90;;;;;;7348105;32;20091;-59
2023/01/21 18:13:15;;;;;;;16.75;10.32;;;0.50;99.90;;;;;;7340535;32;20189;-59
2023/01/21 18:17:23;;;;;;;18.08;10.57;;;0.60;99.90;;;;;;7310644;32;20208;-59
2023/01/21 18:21:25;;;;;;;19.15;10.18;;;0.60;99.90;;;;;;7337087;32;20213;-58
2023/01/21 18:25:27;;;;;;;20.35;10.82;;;0.60;99.90;;;;;;7343240;32;20857;-58
2023/01/21 18:29:29;;;;;;;19.17;9.95;;;0.60;99.90;;;;;;7332376;32;20260;-58
2023/01/21 18:33:31;;;;;;;17.62;10.73;;;0.60;99.90;;;;;;7335110;32;20152;-58
2023/01/21 18:37:33;;;;;;;19.23;11.20;;;0.60;99.90;;;;;;7344809;32;20137;-58
2023/01/21 18:41:34;;;;;;;19.42;10.68;;;0.50;99.90;;;;;;7338030;32;20133;-58
2023/01/21 18:45:37;;;;;;;19.52;11.05;;;0.50;99.90;;;;;;7337484;32;20107;-59
2023/01/21 18:49:39;;;;;;;19.75;11.65;;;0.50;99.90;;;;;;7330214;32;20125;-59
2023/01/21 18:53:41;;;;;;;27.40;13.68;;;0.40;99.90;;;;;;7338161;32;20498;-60
2023/01/21 18:57:45;;;;;;;21.73;13.98;;;0.40;99.90;;;;;;7334983;32;20226;-60
2023/01/21 19:01:47;;;;;;;20.40;11.70;;;0.40;99.90;;;;;;7337934;32;20437;-60
2023/01/21 19:05:49;;;;;;;26.20;12.40;;;0.40;99.90;;;;;;7334080;32;20602;-60
2023/01/21 19:09:51;;;;;;;25.35;12.63;;;0.50;99.90;;;;;;7338391;32;20187;-60
2023/01/21 19:13:53;;;;;;;24.35;13.85;;;0.40;99.90;;;;;;7341924;32;20129;-60
2023/01/21 19:17:56;;;;;;;25.88;13.57;;;0.40;99.90;;;;;;7327545;32;20182;-60
2023/01/21 19:21:58;;;;;;;25.70;12.43;;;0.30;99.90;;;;;;7332807;32;20189;-59
2023/01/21 19:26:00;;;;;;;24.17;12.65;;;0.40;99.90;;;;;;7338160;32;20125;-59
2023/01/21 19:30:09;;;;;;;24.15;12.82;;;0.40;99.90;;;;;;7327949;32;20206;-60
2023/01/21 19:34:11;;;;;;;24.02;12.95;;;0.50;99.90;;;;;;7336833;32;20156;-60
2023/01/21 19:38:16;;;;;;;25.83;13.55;;;0.50;99.90;;;;;;7334510;32;20210;-60
2023/01/21 19:42:18;;;;;;;20.60;11.98;;;0.50;99.90;;;;;;7334617;32;21046;-60
2023/01/21 19:46:22;;;;;;;22.58;12.77;;;0.50;99.90;;;;;;7335244;32;20227;-59
2023/01/21 19:50:26;;;;;;;25.58;13.60;;;0.50;99.90;;;;;;7339483;32;20126;-60
2023/01/21 19:54:28;;;;;;;25.70;14.00;;;0.50;99.90;;;;;;7337781;32;20194;-60
2023/01/21 19:58:31;;;;;;;25.20;13.50;;;0.50;99.90;;;;;;7341328;32;20111;-59
2023/01/21 20:02:32;;;;;;;25.30;13.82;;;0.50;99.90;;;;;;7338426;32;20108;-59
2023/01/21 20:06:39;;;;;;;28.17;14.43;;;0.60;99.90;;;;;;7344840;32;20123;-60
2023/01/21 20:10:40;;;;;;;28.17;15.15;;;0.50;99.90;;;;;;7334561;32;20226;-59
2023/01/21 20:14:42;;;;;;;28.27;16.05;;;0.50;99.90;;;;;;7338689;32;20137;-58
2023/01/21 20:18:45;;;;;;;32.95;16.65;;;0.50;99.90;;;;;;7346073;32;20350;-59
2023/01/21 20:22:47;;;;;;;33.22;16.73;;;0.50;99.90;;;;;;7341565;32;20115;-59
2023/01/21 20:26:48;;;;;;;35.38;20.42;;;0.60;99.90;;;;;;7342823;32;20198;-59
2023/01/21 20:30:51;;;;;;;33.67;18.95;;;0.50;99.90;;;;;;7337613;32;20126;-59
2023/01/21 20:34:53;;;;;;;36.42;18.37;;;0.50;99.90;;;;;;7344463;32;20186;-59
2023/01/21 20:38:55;;;;;;;35.35;19.15;;;0.60;99.90;;;;;;7330470;32;20210;-60
2023/01/21 20:42:57;;;;;;;34.78;19.02;;;0.60;99.90;;;;;;7338649;32;20516;-60
2023/01/21 20:47:00;;;;;;;37.75;19.77;;;0.60;99.90;;;;;;7332520;32;20308;-60
2023/01/21 20:51:02;;;;;;;37.92;18.77;;;0.60;99.90;;;;;;7336935;32;20099;-59
2023/01/21 20:55:04;;;;;;;31.58;18.55;;;0.60;99.90;;;;;;7341153;32;20226;-59
2023/01/21 20:59:08;;;;;;;41.67;22.37;;;0.60;99.90;;;;;;7331494;32;20126;-60
2023/01/21 21:03:11;;;;;;;54.47;28.08;;;0.60;99.90;;;;;;7330202;32;20103;-59
2023/01/21 21:07:15;;;;;;;40.83;21.50;;;0.50;99.90;;;;;;7345441;32;20108;-60
2023/01/21 21:11:18;;;;;;;41.42;21.98;;;0.50;99.90;;;;;;7332204;32;20149;-62
2023/01/21 21:15:20;;;;;;;46.63;23.00;;;0.50;99.90;;;;;;7335102;32;20503;-62
2023/01/21 21:19:22;;;;;;;42.72;22.90;;;0.40;99.90;;;;;;7336443;32;20099;-63